NCAR-RAP Real-Time Weather Data

Output produced by METARs form (23 July 2019  22:34 UTC)
found at http://weather.rap.ucar.edu/surface/
 
KFNT 232153Z 26005KT 10SM BKN100 OVC110 19/14 A3003 RMK AO2 LTG DSNT S RAE05B25E35 SLP168 P0000 T01890144